Time;durP1;ratioP1;P1;durP2;ratioP2;P2;SDS_P1;SDS_P2;PMS_P1;PMS_P2;Temp;Humidity;BMP_temperature;BMP_pressure;BME280_temperature;BME280_humidity;BME280_pressure;Samples;Min_cycle;Max_cycle;Signal;HPM_P1;HPM_P2
2021/12/16 00:08:57;;;;;;;33.17;11.50;;;;;;;7.08;100.00;103500.22;4993633;28;20027;-75
2021/12/16 00:33:31;;;;;;;25.60;10.30;;;;;;;7.05;100.00;103486.13;4995368;28;20045;-75
2021/12/16 00:35:57;;;;;;;19.55;9.52;;;;;;;7.05;100.00;103486.13;4993145;28;20038;-74
2021/12/16 00:38:23;;;;;;;32.97;10.27;;;;;;;7.03;100.00;103482.59;4993117;28;20059;-74
2021/12/16 00:40:49;;;;;;;26.08;9.70;;;;;;;7.04;100.00;103494.03;4993069;28;20129;-74
2021/12/16 00:48:21;;;;;;;28.83;10.20;;;;;;;7.16;100.00;103483.63;4992779;28;20057;-75
2021/12/16 00:56:07;;;;;;;28.83;10.40;;;;;;;7.21;100.00;103491.59;5074235;28;20035;-73
2021/12/16 00:58:46;;;;;;;30.08;10.45;;;;;;;7.17;100.00;103495.06;5074211;28;20024;-75
2021/12/16 01:01:39;;;;;;;27.10;10.60;;;;;;;7.21;100.00;103489.84;5073976;28;20039;-73
2021/12/16 01:34:20;;;;;;;27.20;10.70;;;;;;;6.62;100.00;103524.16;5093730;28;20127;-75
2021/12/16 01:50:09;;;;;;;32.00;10.80;;;;;;;6.30;100.00;103530.69;5093798;28;20048;-72
2021/12/16 01:55:17;;;;;;;29.52;10.10;;;;;;;6.39;100.00;103533.50;5093437;28;19912;-74
2021/12/16 01:57:48;;;;;;;33.92;10.88;;;;;;;6.38;100.00;103534.34;5092891;28;20032;-75
2021/12/16 02:00:17;;;;;;;24.50;10.23;;;;;;;6.32;100.00;103547.41;5093470;28;20020;-75
2021/12/16 02:02:47;;;;;;;34.30;10.73;;;;;;;6.27;100.00;103543.81;5092774;28;20036;-73
2021/12/16 02:05:35;;;;;;;37.22;11.77;;;;;;;6.23;100.00;103545.50;5092842;28;20493;-72
2021/12/16 02:10:39;;;;;;;35.15;11.77;;;;;;;6.21;100.00;103563.03;5093172;28;20028;-75
2021/12/16 02:13:36;;;;;;;33.28;12.23;;;;;;;6.23;100.00;103555.16;5093258;28;20020;-75
2021/12/16 02:37:32;;;;;;;26.35;11.43;;;;;;;6.28;100.00;103569.28;5009570;28;20116;-75
2021/12/16 02:39:57;;;;;;;34.40;11.35;;;;;;;6.27;100.00;103569.25;5017565;28;20033;-75
2021/12/16 02:42:36;;;;;;;35.00;11.13;;;;;;;6.25;100.00;103568.31;5030290;28;20043;-73
2021/12/16 02:50:24;;;;;;;25.80;11.45;;;;;;;6.19;100.00;103571.72;5068132;28;20067;-74
2021/12/16 02:52:50;;;;;;;31.58;11.10;;;;;;;6.09;100.00;103577.69;5092468;28;20032;-75
2021/12/16 02:55:18;;;;;;;30.50;10.73;;;;;;;5.99;100.00;103587.16;5092747;28;20028;-75
2021/12/16 02:57:54;;;;;;;40.30;12.13;;;;;;;5.94;100.00;103573.88;5092158;28;20028;-74
2021/12/16 03:00:20;;;;;;;32.30;12.00;;;;;;;5.95;100.00;103570.41;5092837;28;20097;-74
2021/12/16 03:02:49;;;;;;;36.28;12.82;;;;;;;6.02;100.00;103574.06;5092714;28;20459;-73
2021/12/16 03:05:16;;;;;;;27.50;11.70;;;;;;;6.01;100.00;103564.38;5092329;28;20020;-74
2021/12/16 03:07:41;;;;;;;32.78;11.98;;;;;;;5.96;100.00;103566.91;5091780;28;20024;-74
2021/12/16 03:15:14;;;;;;;30.92;11.07;;;;;;;5.77;100.00;103568.31;5092542;28;20123;-74
2021/12/16 03:18:11;;;;;;;30.15;11.18;;;;;;;5.77;100.00;103563.06;5091878;28;20028;-72
2021/12/16 03:26:06;;;;;;;30.48;11.85;;;;;;;5.76;100.00;103576.19;5072078;28;20025;-74
2021/12/16 03:31:11;;;;;;;34.22;13.00;;;;;;;5.62;100.00;103570.66;5092216;28;20071;-74
2021/12/16 03:33:59;;;;;;;35.88;11.85;;;;;;;5.58;100.00;103573.19;5092232;28;20035;-74
2021/12/16 03:39:03;;;;;;;29.17;11.48;;;;;;;5.64;100.00;103588.22;5091528;28;20388;-73
2021/12/16 03:41:31;;;;;;;29.35;11.52;;;;;;;5.74;100.00;103581.38;5091794;28;20475;-75
2021/12/16 03:43:59;;;;;;;33.83;12.45;;;;;;;5.81;100.00;103577.16;5091911;28;20476;-75
2021/12/16 03:46:29;;;;;;;32.65;13.23;;;;;;;5.88;100.00;103571.13;5094082;28;20058;-75
2021/12/16 03:49:00;;;;;;;30.98;13.20;;;;;;;5.91;100.00;103579.09;5095764;28;20107;-76
2021/12/16 03:51:34;;;;;;;36.20;13.60;;;;;;;5.91;100.00;103576.47;5094906;28;20032;-75
2021/12/16 03:54:09;;;;;;;32.53;12.68;;;;;;;5.95;100.00;103574.78;5095529;28;20098;-75
2021/12/16 03:56:36;;;;;;;35.17;12.55;;;;;;;5.98;100.00;103570.47;5095692;28;20020;-76
2021/12/16 03:59:04;;;;;;;33.20;13.05;;;;;;;6.04;100.00;103565.34;5095382;28;20028;-75
2021/12/16 04:01:31;;;;;;;30.15;13.25;;;;;;;6.05;100.00;103563.63;5094922;28;20024;-75
2021/12/16 04:03:57;;;;;;;32.78;12.90;;;;;;;5.97;100.00;103565.16;5095655;28;20081;-75
2021/12/16 04:06:26;;;;;;;27.92;12.10;;;;;;;5.91;100.00;103569.44;5095198;28;20376;-74
2021/12/16 04:08:53;;;;;;;38.60;13.63;;;;;;;5.89;100.00;103573.78;5095284;28;20498;-75
2021/12/16 04:11:23;;;;;;;33.13;12.05;;;;;;;5.85;100.00;103581.59;5094645;28;20020;-73
2021/12/16 04:13:56;;;;;;;29.10;13.13;;;;;;;5.83;100.00;103584.22;5085671;28;20020;-74
2021/12/16 04:16:26;;;;;;;29.85;11.88;;;;;;;5.79;100.00;103585.00;5095187;28;20581;-76
2021/12/16 04:18:51;;;;;;;25.23;11.50;;;;;;;5.78;100.00;103580.63;5094851;28;20113;-76
2021/12/16 04:21:19;;;;;;;37.97;13.43;;;;;;;5.80;100.00;103583.25;5094727;28;20048;-77
2021/12/16 04:23:48;;;;;;;36.08;12.30;;;;;;;5.81;100.00;103585.03;5094784;28;20107;-76
2021/12/16 04:26:15;;;;;;;27.88;12.27;;;;;;;5.83;100.00;103588.56;5095191;28;20034;-76
2021/12/16 04:28:42;;;;;;;29.98;11.52;;;;;;;5.83;100.00;103586.84;5095047;28;20066;-74
2021/12/16 04:31:07;;;;;;;30.00;11.25;;;;;;;5.87;100.00;103598.28;5094993;28;20024;-77
2021/12/16 04:33:36;;;;;;;26.75;11.57;;;;;;;5.88;100.00;103598.34;5094147;28;20028;-73
2021/12/16 04:36:01;;;;;;;30.10;12.15;;;;;;;5.87;100.00;103595.66;5094647;28;20028;-75
2021/12/16 04:38:27;;;;;;;29.05;11.82;;;;;;;5.83;100.00;103578.06;5094461;28;20044;-77
2021/12/16 04:40:52;;;;;;;30.65;11.68;;;;;;;5.82;100.00;103576.28;5094703;28;20031;-76
2021/12/16 04:43:22;;;;;;;32.30;12.93;;;;;;;5.79;100.00;103581.50;5094276;28;20024;-75
2021/12/16 04:45:49;;;;;;;30.58;12.93;;;;;;;5.79;100.00;103584.13;5074572;28;20059;-74
2021/12/16 04:48:15;;;;;;;31.35;12.80;;;;;;;5.79;100.00;103586.75;5074343;28;20502;-74
2021/12/16 04:50:40;;;;;;;36.60;14.35;;;;;;;5.79;100.00;103578.84;5074377;28;20028;-73
2021/12/16 04:53:06;;;;;;;32.90;13.43;;;;;;;5.83;100.00;103583.31;5074179;28;20511;-74
2021/12/16 04:55:31;;;;;;;25.50;12.13;;;;;;;5.90;100.00;103578.19;5093537;28;20035;-75
2021/12/16 04:57:57;;;;;;;31.48;12.98;;;;;;;5.89;100.00;103586.94;5094223;28;20036;-74
2021/12/16 05:00:24;;;;;;;30.88;12.02;;;;;;;5.80;100.00;103593.78;5094353;28;20067;-75
2021/12/16 05:02:51;;;;;;;30.45;12.68;;;;;;;5.71;100.00;103599.75;5094178;28;20081;-72
2021/12/16 05:05:16;;;;;;;33.28;12.18;;;;;;;5.71;100.00;103587.47;5093718;28;20153;-74
2021/12/16 05:07:44;;;;;;;32.08;12.75;;;;;;;5.76;100.00;103597.22;5094039;28;20111;-74
2021/12/16 05:10:12;;;;;;;31.45;14.02;;;;;;;5.74;100.00;103605.94;5094160;28;20020;-76
2021/12/16 05:12:43;;;;;;;33.22;13.68;;;;;;;5.76;100.00;103613.00;5094405;28;20066;-75
2021/12/16 05:15:16;;;;;;;34.90;13.25;;;;;;;5.79;100.00;103607.78;5093495;28;20028;-76
2021/12/16 05:17:45;;;;;;;34.08;12.82;;;;;;;5.82;100.00;103607.81;5090942;28;20498;-76
2021/12/16 05:20:15;;;;;;;35.75;13.80;;;;;;;5.80;100.00;103605.19;5094077;28;20035;-76
2021/12/16 05:25:45;;;;;;;28.50;12.27;;;;;;;5.75;100.00;103622.59;5093744;28;20042;-75
2021/12/16 05:28:11;;;;;;;33.40;12.45;;;;;;;5.73;100.00;103621.72;5093693;28;20036;-75
2021/12/16 05:30:37;;;;;;;25.52;12.00;;;;;;;5.72;100.00;103622.56;5093879;28;20078;-75
2021/12/16 05:33:04;;;;;;;40.15;13.93;;;;;;;5.71;100.00;103619.03;5093635;28;20031;-73
2021/12/16 05:35:33;;;;;;;31.67;13.48;;;;;;;5.75;100.00;103622.59;5093619;28;20020;-74
2021/12/16 05:37:59;;;;;;;31.85;13.73;;;;;;;5.76;100.00;103634.03;5085916;28;20553;-76
2021/12/16 05:40:27;;;;;;;30.95;12.65;;;;;;;5.73;100.00;103629.59;5073509;28;20032;-75
2021/12/16 05:42:59;;;;;;;33.28;13.23;;;;;;;5.79;100.00;103629.69;5073341;28;20021;-76
2021/12/16 05:45:26;;;;;;;28.65;12.93;;;;;;;5.85;100.00;103632.44;5073210;28;20024;-76
2021/12/16 05:47:52;;;;;;;26.45;11.57;;;;;;;5.72;100.00;103633.94;5085846;28;20056;-75
2021/12/16 05:50:18;;;;;;;27.17;11.00;;;;;;;5.65;100.00;103631.16;5093181;28;20038;-74
2021/12/16 05:52:43;;;;;;;23.45;11.30;;;;;;;5.61;100.00;103642.47;5092776;28;20470;-74
2021/12/16 05:55:12;;;;;;;26.23;12.18;;;;;;;5.73;100.00;103640.13;5093265;28;20035;-75
2021/12/16 05:57:37;;;;;;;28.52;12.32;;;;;;;5.75;100.00;103646.28;5092756;28;20024;-75
2021/12/16 06:00:06;;;;;;;22.58;11.35;;;;;;;5.67;100.00;103635.59;5092917;28;20375;-75
2021/12/16 06:02:32;;;;;;;24.77;11.20;;;;;;;5.62;100.00;103634.63;5092939;28;20028;-75
2021/12/16 06:04:57;;;;;;;29.10;13.25;;;;;;;5.74;100.00;103637.50;5093039;28;20031;-75
2021/12/16 06:07:23;;;;;;;31.80;13.25;;;;;;;5.85;100.00;103635.09;5093149;28;20016;-74
2021/12/16 06:09:48;;;;;;;30.60;12.60;;;;;;;5.81;100.00;103632.38;5075061;28;20024;-73
2021/12/16 06:12:15;;;;;;;29.02;13.15;;;;;;;5.78;100.00;103627.94;5092583;28;20035;-73
2021/12/16 06:28:01;;;;;;;25.27;12.10;;;;;;;5.56;100.00;103666.03;5072710;28;20063;-76
2021/12/16 06:30:30;;;;;;;28.13;12.18;;;;;;;5.54;100.00;103659.88;5077820;28;20142;-74
2021/12/16 06:32:56;;;;;;;33.40;13.23;;;;;;;5.51;100.00;103665.94;5072244;28;20534;-75
2021/12/16 06:35:22;;;;;;;27.77;12.80;;;;;;;5.54;100.00;103668.63;5069157;28;20097;-72
2021/12/16 06:37:48;;;;;;;28.67;13.48;;;;;;;5.49;100.00;103665.00;5092375;28;20055;-75
2021/12/16 06:40:14;;;;;;;25.33;11.95;;;;;;;5.46;100.00;103677.19;5091757;28;20035;-73
2021/12/16 06:42:41;;;;;;;36.35;14.18;;;;;;;5.53;100.00;103681.75;5092491;28;20024;-75
2021/12/16 06:45:13;;;;;;;28.33;13.13;;;;;;;5.56;100.00;103677.44;5092587;28;20062;-75
2021/12/16 06:47:53;;;;;;;24.33;12.70;;;;;;;5.52;100.00;103682.59;5092638;28;20020;-74
2021/12/16 06:50:35;;;;;;;29.52;13.68;;;;;;;5.44;100.00;103676.28;5092430;28;20021;-76
2021/12/16 06:53:02;;;;;;;22.52;11.18;;;;;;;5.36;100.00;103686.63;5088559;28;20035;-75
2021/12/16 06:55:39;;;;;;;30.20;12.93;;;;;;;5.47;100.00;103686.84;5091654;28;20066;-72
2021/12/16 06:58:18;;;;;;;28.33;13.10;;;;;;;5.50;100.00;103698.34;5092263;28;20139;-75
2021/12/16 07:00:47;;;;;;;25.35;12.15;;;;;;;5.39;100.00;103692.81;5098734;28;20070;-73
2021/12/16 07:03:18;;;;;;;31.73;13.70;;;;;;;5.28;100.00;103691.72;5092072;28;20032;-77
2021/12/16 07:05:47;;;;;;;28.30;13.18;;;;;;;5.23;100.00;103704.72;5080963;28;20032;-75
2021/12/16 07:08:16;;;;;;;27.35;12.27;;;;;;;5.40;100.00;103714.75;5076487;28;20020;-77
2021/12/16 07:10:45;;;;;;;29.83;12.85;;;;;;;5.49;100.00;103709.69;5083411;28;20486;-74
2021/12/16 07:13:18;;;;;;;27.75;13.20;;;;;;;5.41;100.00;103708.66;5104398;28;20016;-76
2021/12/16 07:15:44;;;;;;;29.88;14.38;;;;;;;5.45;100.00;103701.69;5108870;28;20051;-74
2021/12/16 07:18:10;;;;;;;35.08;13.63;;;;;;;5.56;100.00;103709.00;5092675;28;20079;-73
2021/12/16 07:20:36;;;;;;;29.23;13.60;;;;;;;5.55;100.00;103717.72;5092554;28;20028;-74
2021/12/16 07:23:04;;;;;;;33.25;13.27;;;;;;;5.51;100.00;103726.41;5078443;28;20020;-75
2021/12/16 07:25:29;;;;;;;36.72;14.40;;;;;;;5.57;100.00;103726.50;5095712;28;20024;-75
2021/12/16 07:27:55;;;;;;;36.00;15.23;;;;;;;5.68;100.00;103728.53;5095884;28;20387;-73
2021/12/16 07:30:23;;;;;;;37.83;14.70;;;;;;;5.70;100.00;103746.09;5096875;28;20024;-75
2021/12/16 07:32:49;;;;;;;42.40;14.82;;;;;;;5.67;100.00;103729.38;5089861;28;20040;-73
2021/12/16 07:35:18;;;;;;;30.20;14.00;;;;;;;5.65;100.00;103737.22;5086906;28;20085;-79
2021/12/16 07:37:44;;;;;;;29.88;13.65;;;;;;;5.80;100.00;103743.69;5095185;28;21000;-75
2021/12/16 07:40:12;;;;;;;25.08;12.85;;;;;;;5.79;100.00;103750.66;5095857;28;20028;-72
2021/12/16 07:42:46;;;;;;;32.75;12.13;;;;;;;5.74;100.00;103745.31;5095266;28;20477;-70
2021/12/16 07:45:14;;;;;;;32.97;14.32;;;;;;;5.69;100.00;103748.69;5095410;28;20073;-75
2021/12/16 07:47:40;;;;;;;30.02;14.23;;;;;;;5.72;100.00;103764.53;5102447;28;20119;-73
2021/12/16 07:50:07;;;;;;;28.08;13.80;;;;;;;5.72;100.00;103770.69;5084719;28;20491;-72
2021/12/16 07:52:34;;;;;;;30.35;13.63;;;;;;;5.76;100.00;103778.66;5093557;28;20031;-72
2021/12/16 07:55:01;;;;;;;25.17;12.90;;;;;;;5.74;100.00;103776.88;5115982;28;20424;-73
2021/12/16 07:57:27;;;;;;;27.58;13.20;;;;;;;5.69;100.00;103770.63;5077330;28;20414;-76
2021/12/16 07:59:52;;;;;;;31.38;13.85;;;;;;;5.72;100.00;103781.19;5095534;28;20036;-75
2021/12/16 08:02:17;;;;;;;26.40;12.60;;;;;;;5.71;100.00;103786.41;5095742;28;20020;-73
2021/12/16 08:04:45;;;;;;;25.00;12.27;;;;;;;5.64;100.00;103784.50;5094924;28;20020;-74
2021/12/16 08:07:14;;;;;;;31.98;14.23;;;;;;;5.66;100.00;103783.69;5095283;28;20035;-72
2021/12/16 08:09:41;;;;;;;35.30;14.38;;;;;;;5.71;100.00;103784.66;5094266;28;20494;-71
2021/12/16 08:12:12;;;;;;;40.22;15.65;;;;;;;5.70;100.00;103779.38;5111945;28;20027;-73
2021/12/16 08:14:42;;;;;;;42.25;16.75;;;;;;;5.83;100.00;103777.91;5103336;28;20023;-73
2021/12/16 08:17:08;;;;;;;36.28;15.60;;;;;;;5.91;100.00;103779.00;5094676;28;20024;-71
2021/12/16 08:19:34;;;;;;;29.90;14.65;;;;;;;5.96;100.00;103785.25;5094753;28;20036;-73
2021/12/16 08:21:59;;;;;;;32.78;15.13;;;;;;;5.99;100.00;103789.72;5079927;28;20028;-75
2021/12/16 08:24:25;;;;;;;37.67;15.80;;;;;;;6.00;100.00;103780.97;5075695;28;20104;-74
2021/12/16 08:26:51;;;;;;;37.80;17.65;;;;;;;6.08;100.00;103797.78;5081650;28;20092;-72
2021/12/16 08:29:18;;;;;;;34.75;16.02;;;;;;;6.07;100.00;103806.53;5082379;28;20035;-72
2021/12/16 08:31:43;;;;;;;33.50;15.45;;;;;;;5.99;100.00;103797.59;5084111;28;20059;-75
2021/12/16 08:34:11;;;;;;;35.95;15.38;;;;;;;5.99;100.00;103803.75;5081243;28;20020;-73
2021/12/16 08:36:36;;;;;;;41.72;17.23;;;;;;;6.07;100.00;103807.44;5076837;28;20020;-74
2021/12/16 08:39:07;;;;;;;39.42;15.88;;;;;;;6.09;100.00;103812.72;5101855;28;20376;-75
2021/12/16 08:41:37;;;;;;;39.97;15.77;;;;;;;6.09;100.00;103812.72;5080965;28;20025;-72
2021/12/16 08:44:03;;;;;;;45.22;17.25;;;;;;;6.20;100.00;103799.78;5076515;28;20035;-73
2021/12/16 08:46:34;;;;;;;34.78;16.98;;;;;;;6.31;100.00;103810.56;5100176;28;20097;-75
2021/12/16 08:48:59;;;;;;;37.17;17.50;;;;;;;6.38;100.00;103818.63;5095146;28;20034;-76
2021/12/16 08:51:29;;;;;;;33.95;16.30;;;;;;;6.35;100.00;103823.81;5093880;28;20028;-75
2021/12/16 08:53:55;;;;;;;32.72;16.17;;;;;;;6.40;100.00;103835.31;5094455;28;20024;-75
2021/12/16 08:56:21;;;;;;;34.10;15.90;;;;;;;6.45;100.00;103838.06;5093738;28;20028;-76
2021/12/16 08:58:46;;;;;;;39.65;17.08;;;;;;;6.45;100.00;103840.69;5094209;28;20472;-74
2021/12/16 09:01:21;;;;;;;36.25;16.27;;;;;;;6.35;100.00;103834.31;5093851;28;20379;-73
2021/12/16 09:03:47;;;;;;;33.85;16.65;;;;;;;6.30;100.00;103835.97;5088572;28;20028;-74
2021/12/16 09:06:12;;;;;;;39.40;17.02;;;;;;;6.35;100.00;103846.63;5076791;28;20032;-74
2021/12/16 09:08:39;;;;;;;40.85;18.17;;;;;;;6.43;100.00;103844.13;5088221;28;20024;-72
2021/12/16 09:11:07;;;;;;;49.88;21.38;;;;;;;6.61;100.00;103836.63;5101756;28;20031;-72
2021/12/16 09:13:35;;;;;;;45.85;21.05;;;;;;;6.82;100.00;103841.41;5095777;28;20035;-73
2021/12/16 09:16:06;;;;;;;47.25;20.92;;;;;;;6.92;100.00;103841.59;5093746;28;20024;-73
2021/12/16 09:18:33;;;;;;;41.92;19.60;;;;;;;6.98;100.00;103836.44;5077300;28;20121;-72
2021/12/16 09:21:00;;;;;;;50.67;20.95;;;;;;;7.34;100.00;103840.56;5087055;28;20051;-74
2021/12/16 09:23:26;;;;;;;45.15;20.33;;;;;;;7.69;100.00;103851.72;5077634;28;20177;-73
2021/12/16 09:25:51;;;;;;;44.17;21.23;;;;;;;8.14;100.00;103847.09;5091396;28;20112;-74
2021/12/16 09:28:23;;;;;;;42.25;21.40;;;;;;;8.56;100.00;103844.16;5093589;28;20020;-74
2021/12/16 09:30:49;;;;;;;45.45;22.30;;;;;;;8.99;100.00;103852.53;5090843;28;20106;-73
2021/12/16 09:33:18;;;;;;;43.53;21.50;;;;;;;9.41;100.00;103843.25;5092969;28;20110;-73
2021/12/16 09:35:47;;;;;;;46.78;23.38;;;;;;;10.02;100.00;103846.31;5101573;28;20027;-73
2021/12/16 09:38:16;;;;;;;35.53;18.15;;;;;;;10.91;100.00;103845.81;5113803;28;20069;-76
2021/12/16 09:40:50;;;;;;;26.55;13.82;;;;;;;11.61;100.00;103842.31;5091779;28;20043;-74
2021/12/16 09:43:19;;;;;;;37.72;14.98;;;;;;;12.12;100.00;103844.00;5095919;28;20103;-73
2021/12/16 09:45:45;;;;;;;26.10;12.68;;;;;;;12.85;100.00;103841.00;5092529;28;20074;-74
2021/12/16 09:48:11;;;;;;;19.80;9.88;;;;;;;13.57;95.78;103851.13;5101333;28;20022;-72
2021/12/16 09:50:36;;;;;;;20.63;9.95;;;;;;;14.23;88.56;103861.97;5113630;28;20024;-74
2021/12/16 09:53:03;;;;;;;18.63;9.30;;;;;;;14.80;84.48;103857.72;5099010;28;20087;-74
2021/12/16 09:55:29;;;;;;;14.10;8.50;;;;;;;15.30;75.98;103849.84;5089564;28;20035;-73
2021/12/16 09:57:55;;;;;;;17.42;8.50;;;;;;;15.51;71.94;103852.16;5089641;28;20074;-73
2021/12/16 10:00:23;;;;;;;14.00;8.32;;;;;;;15.91;74.57;103868.38;5078728;28;20048;-73
2021/12/16 10:02:52;;;;;;;16.20;7.95;;;;;;;16.07;71.84;103867.16;5086993;28;20035;-72
2021/12/16 10:05:20;;;;;;;14.90;7.78;;;;;;;16.55;68.75;103874.22;5091640;28;20032;-74
2021/12/16 10:07:46;;;;;;;12.45;8.10;;;;;;;17.02;67.90;103876.75;5092710;28;20016;-73
2021/12/16 10:10:16;;;;;;;16.02;8.40;;;;;;;16.95;66.30;103873.34;5092853;28;20024;-74
2021/12/16 10:12:45;;;;;;;15.43;8.25;;;;;;;17.27;63.80;103868.13;5092496;28;20034;-73
2021/12/16 10:17:59;;;;;;;12.68;7.78;;;;;;;17.80;61.32;103873.00;5091802;28;20472;-74
2021/12/16 10:20:28;;;;;;;17.42;8.70;;;;;;;17.80;62.41;103883.72;5092799;28;20024;-73
2021/12/16 10:23:35;;;;;;;16.52;8.82;;;;;;;17.95;61.82;103883.31;5092744;28;20020;-75
2021/12/16 10:26:06;;;;;;;15.32;8.77;;;;;;;18.29;59.57;103885.06;4991774;28;20034;-74
2021/12/16 10:28:43;;;;;;;17.50;8.60;;;;;;;18.39;57.74;103893.72;4989713;28;20082;-74
2021/12/16 10:31:12;;;;;;;13.85;8.45;;;;;;;18.26;58.98;103884.28;4990771;28;20101;-74
2021/12/16 10:33:54;;;;;;;15.80;9.52;;;;;;;18.27;58.52;103877.97;4992058;28;20054;-74
2021/12/16 10:36:29;;;;;;;14.43;8.82;;;;;;;18.48;58.33;103881.84;4987603;28;20038;-74
2021/12/16 10:39:13;;;;;;;19.33;9.57;;;;;;;17.58;59.72;103889.63;4988704;28;20050;-73
2021/12/16 10:41:42;;;;;;;17.45;9.13;;;;;;;17.23;59.69;103885.19;4985157;28;20185;-72
2021/12/16 10:44:17;;;;;;;14.43;9.23;;;;;;;17.09;61.28;103890.88;4989917;28;20030;-72
2021/12/16 10:46:49;;;;;;;15.10;9.07;;;;;;;17.09;60.51;103891.75;4990251;28;20038;-73
2021/12/16 10:49:19;;;;;;;16.30;8.93;;;;;;;16.83;63.57;103898.56;4985761;28;20042;-73
2021/12/16 10:51:48;;;;;;;13.70;8.23;;;;;;;17.20;61.81;103894.19;4989346;28;20026;-76
2021/12/16 10:54:19;;;;;;;13.63;8.73;;;;;;;17.67;60.34;103886.75;4992915;28;20415;-73
2021/12/16 10:56:47;;;;;;;17.67;10.65;;;;;;;17.66;59.17;103886.75;4993313;28;20499;-76
2021/12/16 10:59:20;;;;;;;28.35;10.30;;;;;;;17.29;60.23;103888.59;4993510;28;20080;-75
2021/12/16 11:01:51;;;;;;;22.30;8.77;;;;;;;17.14;61.44;103892.53;5021117;28;20036;-74
2021/12/16 11:04:46;;;;;;;24.88;11.32;;;;;;;16.73;61.65;103897.00;5091016;28;20043;-73
2021/12/16 11:07:19;;;;;;;13.07;8.10;;;;;;;16.64;64.60;103889.19;5086855;28;20102;-71
2021/12/16 11:09:47;;;;;;;16.85;9.15;;;;;;;16.81;62.26;103894.16;5089560;28;20074;-75
2021/12/16 11:12:23;;;;;;;17.90;9.35;;;;;;;16.84;61.84;103894.97;5085165;28;21554;-74
2021/12/16 11:15:17;;;;;;;16.75;8.27;;;;;;;16.67;62.77;103897.13;5091726;28;20028;-74
2021/12/16 11:18:03;;;;;;;15.77;7.95;;;;;;;17.07;65.11;103888.22;5097061;28;20024;-76
2021/12/16 11:20:37;;;;;;;13.18;7.68;;;;;;;17.71;61.54;103886.66;5110470;28;20034;-74
2021/12/16 11:23:15;;;;;;;15.07;7.03;;;;;;;18.30;57.98;103894.88;5114267;28;20087;-73
2021/12/16 11:25:44;;;;;;;14.32;7.20;;;;;;;17.54;58.64;103882.59;5095689;28;20038;-72
2021/12/16 11:28:17;;;;;;;14.20;6.90;;;;;;;16.94;61.36;103876.91;5095426;28;20020;-72
2021/12/16 11:30:52;;;;;;;13.93;7.45;;;;;;;16.98;62.03;103878.63;5080904;28;20028;-74
2021/12/16 11:33:43;;;;;;;14.40;6.88;;;;;;;17.41;60.33;103887.41;5100642;28;20070;-74
2021/12/16 11:36:31;;;;;;;15.02;7.60;;;;;;;17.42;60.42;103880.25;5093756;28;20593;-74
2021/12/16 11:39:12;;;;;;;16.10;7.22;;;;;;;17.46;61.15;103882.81;5080511;28;20054;-74
2021/12/16 11:41:43;;;;;;;16.38;7.32;;;;;;;17.47;59.63;103879.22;5077748;28;20392;-72
2021/12/16 11:44:22;;;;;;;14.43;6.88;;;;;;;17.89;61.65;103885.28;5088573;28;20535;-72
2021/12/16 11:47:03;;;;;;;15.00;6.35;;;;;;;18.71;58.53;103878.47;5095837;28;20121;-73
2021/12/16 11:49:33;;;;;;;17.58;7.53;;;;;;;18.94;56.90;103871.50;5094731;28;20046;-73
2021/12/16 11:52:07;;;;;;;17.98;8.57;;;;;;;19.53;55.28;103866.84;5095760;28;20031;-74
2021/12/16 11:54:35;;;;;;;14.45;7.53;;;;;;;19.64;54.65;103876.34;5094852;28;20020;-73
2021/12/16 11:57:12;;;;;;;16.13;7.53;;;;;;;19.39;51.93;103872.75;5093551;28;20043;-73
2021/12/16 11:59:56;;;;;;;14.52;8.18;;;;;;;19.32;54.41;103869.34;5090183;28;20503;-73
2021/12/16 12:02:35;;;;;;;13.18;6.57;;;;;;;19.27;53.63;103879.38;5084201;28;20023;-73
2021/12/16 12:05:15;;;;;;;14.93;6.65;;;;;;;18.67;55.95;103874.13;5095322;28;20123;-73
2021/12/16 12:07:43;;;;;;;14.15;6.70;;;;;;;19.60;53.75;103869.31;5094535;28;20020;-72
2021/12/16 12:10:09;;;;;;;14.20;6.68;;;;;;;19.73;52.16;103868.84;5095272;28;20059;-73
2021/12/16 12:12:47;;;;;;;13.38;7.03;;;;;;;19.42;54.33;103865.44;5095016;28;20412;-75
2021/12/16 12:15:16;;;;;;;17.30;7.80;;;;;;;18.79;54.76;103867.47;5095097;28;20081;-73
2021/12/16 12:17:55;;;;;;;13.32;6.18;;;;;;;19.32;54.79;103864.88;5095188;28;20028;-74
2021/12/16 12:20:28;;;;;;;11.05;5.53;;;;;;;19.97;50.08;103864.44;5094664;28;20070;-73
2021/12/16 12:22:54;;;;;;;12.07;4.93;;;;;;;18.79;52.58;103856.75;5091864;28;20047;-74
2021/12/16 12:25:20;;;;;;;11.05;5.15;;;;;;;18.78;52.92;103852.28;5089411;28;20468;-76
2021/12/16 12:27:46;;;;;;;12.45;5.40;;;;;;;18.64;53.44;103858.09;5088153;28;20480;-76
2021/12/16 12:30:13;;;;;;;12.63;5.57;;;;;;;18.93;53.19;103857.22;5098013;28;20100;-73
2021/12/16 12:32:42;;;;;;;10.95;5.30;;;;;;;19.23;52.71;103857.09;5046997;22;20073;-72
2021/12/16 12:35:10;;;;;;;11.30;5.15;;;;;;;19.23;51.04;103857.09;5028816;28;20026;-74
2021/12/16 12:37:39;;;;;;;15.18;6.28;;;;;;;18.53;54.01;103861.13;5023419;28;20038;-74
2021/12/16 12:40:13;;;;;;;16.02;6.53;;;;;;;18.08;56.35;103866.91;5031559;28;20052;-72
2021/12/16 12:42:40;;;;;;;11.80;6.20;;;;;;;18.16;56.12;103857.72;5033419;28;20021;-73
2021/12/16 12:45:08;;;;;;;13.77;6.88;;;;;;;18.02;56.79;103858.13;5032935;28;20029;-74
2021/12/16 12:47:37;;;;;;;15.57;6.22;;;;;;;19.02;53.07;103860.53;5029226;28;20021;-75
2021/12/16 12:50:34;;;;;;;10.48;5.97;;;;;;;18.62;54.08;103865.31;5023016;28;20030;-73
2021/12/16 12:53:26;;;;;;;10.88;5.30;;;;;;;19.02;52.40;103858.72;5033773;28;20036;-73
2021/12/16 12:55:56;;;;;;;12.45;5.60;;;;;;;18.71;54.07;103866.81;5032220;28;20037;-73
2021/12/16 12:58:27;;;;;;;10.88;5.60;;;;;;;18.63;54.73;103865.28;5029228;28;20037;-73
2021/12/16 13:01:00;;;;;;;13.02;5.53;;;;;;;18.60;54.16;103872.53;5033968;28;20036;-73
2021/12/16 13:03:33;;;;;;;11.25;5.05;;;;;;;17.76;56.02;103865.97;5034386;28;20108;-74
2021/12/16 13:06:05;;;;;;;14.15;5.78;;;;;;;17.41;57.41;103874.00;5027533;28;20036;-73
2021/12/16 13:08:37;;;;;;;14.45;5.43;;;;;;;17.52;57.09;103871.94;5030981;28;20061;-73
2021/12/16 13:11:18;;;;;;;12.75;5.97;;;;;;;17.64;56.09;103868.03;5033419;28;20029;-74
2021/12/16 13:14:03;;;;;;;15.68;6.80;;;;;;;17.42;57.10;103859.69;5029890;28;20084;-72
2021/12/16 13:16:54;;;;;;;13.55;5.63;;;;;;;17.12;58.45;103867.59;5013745;28;20494;-72
2021/12/16 13:25:42;;;;;;;8.35;4.30;;;;;;;17.40;57.12;103864.22;5032935;28;20044;-72
2021/12/16 13:28:04;;;;;;;11.52;4.60;;;;;;;17.01;57.22;103872.31;5020276;28;20551;-73
2021/12/16 13:30:37;;;;;;;11.57;4.72;;;;;;;17.20;58.42;103867.41;5027677;28;20033;-73
2021/12/16 13:33:17;;;;;;;11.20;5.13;;;;;;;17.20;58.32;103870.94;5032708;28;20124;-73
2021/12/16 13:35:50;;;;;;;13.20;4.95;;;;;;;17.73;56.43;103866.94;5030771;28;20060;-72
2021/12/16 13:38:19;;;;;;;12.18;5.22;;;;;;;17.70;56.83;103861.66;5033267;28;20033;-75
2021/12/16 13:40:45;;;;;;;9.88;5.57;;;;;;;17.86;55.77;103867.47;5033685;28;20075;-76
2021/12/16 13:43:22;;;;;;;15.18;5.13;;;;;;;17.95;55.46;103863.69;5032994;28;20030;-72
2021/12/16 13:46:05;;;;;;;8.05;4.03;;;;;;;17.90;56.16;103858.41;5031971;28;20033;-73
2021/12/16 14:03:02;;;;;;;14.05;7.00;;;;;;;17.12;57.56;103862.25;4988489;28;20109;-73
2021/12/16 14:06:22;;;;;;;14.25;6.30;;;;;;;16.40;59.81;103859.38;4974754;28;20039;-74
2021/12/16 14:08:52;;;;;;;13.35;6.32;;;;;;;15.24;63.29;103875.72;5000508;28;20499;-72
2021/12/16 14:14:27;;;;;;;13.15;5.72;;;;;;;13.58;70.09;103884.84;5004758;28;20513;-73
2021/12/16 14:25:18;;;;;;;15.27;6.07;;;;;;;13.71;70.92;103895.41;4991703;28;20126;-74
2021/12/16 14:46:46;;;;;;;13.30;6.85;;;;;;;13.11;74.56;103889.59;5010312;28;20033;-75
2021/12/16 14:49:12;;;;;;;14.80;6.47;;;;;;;13.00;74.57;103895.88;4993534;28;20046;-72